Forside
METAR-TAF:

METAR-TAF

Lufthavne :

Tri-County Regional Airport

Lone Rock, Wisconsin, USA

Breddekreds: 43-12-43N, længdekreds: 090-10-53W, højde: 219 m

Aktuelle vejr

Denne rapport blev lavet for 14 minutter siden, kl. 12:00 UTC
Vind 7 kt fra øst
Temperatur 0°C
Fugtighed 93%
Tryk 1021 hPa
Sigt: 1.2 km
Brudte skyer i en højde af 700 ft
Overskyet i en højde af 1400 ft
let sne, dis

METAR: KLNR 241200Z AUTO 10007KT 3/4SM -SN BR BKN007 OVC014 00/M01 A3016 RMK AO2 P0000 T00001011

Tid: 06:14 (12:14 UTC)


TAF: fraværende

Vejrobservationer og prognoser fra mere end 4000 lufthavne (METAR og TAF).

De gule og røde prikker repræsenterer de meteorologiske stationer.

Flyt musen over at se navnet på stationen.

Så klik over at se vejr observationer og prognoser.

At skifte det kort: Klik på de grønne knapper med et sort kors for at zoome ind; på den grønne knap med en bindestreg for at zoome ud; eller på de grønne pile for tilstødende kort.


METAR-TAF: